sensor_id;sensor_type;location;lat;lon;timestamp;P1;durP1;ratioP1;P2;durP2;ratioP2
70715;SDS011;59053;50.832;12.882;2023-07-20T00:02:11;10.43;;;4.70;;
70715;SDS011;59053;50.832;12.882;2023-07-20T00:04:37;11.57;;;4.57;;
70715;SDS011;59053;50.832;12.882;2023-07-20T00:07:03;8.93;;;4.63;;
70715;SDS011;59053;50.832;12.882;2023-07-20T00:09:28;8.25;;;4.70;;
70715;SDS011;59053;50.832;12.882;2023-07-20T00:11:54;10.43;;;4.60;;
70715;SDS011;59053;50.832;12.882;2023-07-20T00:14:19;10.23;;;4.78;;
70715;SDS011;59053;50.832;12.882;2023-07-20T00:20:08;10.50;;;5.05;;
70715;SDS011;59053;50.832;12.882;2023-07-20T00:22:33;8.93;;;4.93;;
70715;SDS011;59053;50.832;12.882;2023-07-20T00:24:59;8.33;;;4.63;;
70715;SDS011;59053;50.832;12.882;2023-07-20T00:27:24;11.50;;;4.80;;
70715;SDS011;59053;50.832;12.882;2023-07-20T00:29:51;7.90;;;4.68;;
70715;SDS011;59053;50.832;12.882;2023-07-20T00:32:16;11.37;;;5.30;;
70715;SDS011;59053;50.832;12.882;2023-07-20T00:34:41;8.87;;;4.37;;
70715;SDS011;59053;50.832;12.882;2023-07-20T00:37:07;11.25;;;5.13;;
70715;SDS011;59053;50.832;12.882;2023-07-20T00:39:33;7.63;;;4.90;;
70715;SDS011;59053;50.832;12.882;2023-07-20T00:45:24;12.20;;;6.30;;
70715;SDS011;59053;50.832;12.882;2023-07-20T00:47:51;9.57;;;5.10;;
70715;SDS011;59053;50.832;12.882;2023-07-20T00:50:16;10.17;;;5.50;;
70715;SDS011;59053;50.832;12.882;2023-07-20T00:52:41;9.50;;;5.17;;
70715;SDS011;59053;50.832;12.882;2023-07-20T00:55:07;10.45;;;5.07;;
70715;SDS011;59053;50.832;12.882;2023-07-20T00:57:33;13.10;;;5.37;;
70715;SDS011;59053;50.832;12.882;2023-07-20T00:59:58;12.95;;;5.80;;
70715;SDS011;59053;50.832;12.882;2023-07-20T01:02:24;11.40;;;5.40;;
70715;SDS011;59053;50.832;12.882;2023-07-20T01:04:49;10.03;;;5.70;;
70715;SDS011;59053;50.832;12.882;2023-07-20T01:12:27;12.60;;;5.75;;
70715;SDS011;59053;50.832;12.882;2023-07-20T01:15:07;10.95;;;5.78;;
70715;SDS011;59053;50.832;12.882;2023-07-20T01:17:36;11.70;;;5.90;;
70715;SDS011;59053;50.832;12.882;2023-07-20T01:20:02;13.93;;;6.00;;
70715;SDS011;59053;50.832;12.882;2023-07-20T01:25:21;10.38;;;5.57;;
70715;SDS011;59053;50.832;12.882;2023-07-20T01:30:39;10.13;;;5.97;;
70715;SDS011;59053;50.832;12.882;2023-07-20T01:33:11;10.90;;;5.80;;
70715;SDS011;59053;50.832;12.882;2023-07-20T01:35:38;9.52;;;6.00;;
70715;SDS011;59053;50.832;12.882;2023-07-20T01:38:06;11.35;;;6.55;;
70715;SDS011;59053;50.832;12.882;2023-07-20T01:40:32;12.52;;;6.10;;
70715;SDS011;59053;50.832;12.882;2023-07-20T01:42:57;14.33;;;6.30;;
70715;SDS011;59053;50.832;12.882;2023-07-20T01:45:23;9.67;;;6.27;;
70715;SDS011;59053;50.832;12.882;2023-07-20T01:47:48;11.90;;;6.53;;
70715;SDS011;59053;50.832;12.882;2023-07-20T01:50:13;11.05;;;6.00;;
70715;SDS011;59053;50.832;12.882;2023-07-20T01:52:39;13.27;;;7.07;;
70715;SDS011;59053;50.832;12.882;2023-07-20T01:55:04;11.17;;;6.83;;
70715;SDS011;59053;50.832;12.882;2023-07-20T01:57:30;10.68;;;6.50;;
70715;SDS011;59053;50.832;12.882;2023-07-20T01:59:56;12.67;;;6.93;;
70715;SDS011;59053;50.832;12.882;2023-07-20T02:02:26;15.57;;;6.93;;
70715;SDS011;59053;50.832;12.882;2023-07-20T02:04:52;12.90;;;7.13;;
70715;SDS011;59053;50.832;12.882;2023-07-20T02:07:17;13.30;;;6.87;;
70715;SDS011;59053;50.832;12.882;2023-07-20T02:09:42;12.60;;;6.82;;
70715;SDS011;59053;50.832;12.882;2023-07-20T02:12:08;12.30;;;7.00;;
70715;SDS011;59053;50.832;12.882;2023-07-20T02:14:33;13.03;;;6.40;;
70715;SDS011;59053;50.832;12.882;2023-07-20T02:16:59;11.90;;;6.80;;
70715;SDS011;59053;50.832;12.882;2023-07-20T02:19:27;13.25;;;6.90;;
70715;SDS011;59053;50.832;12.882;2023-07-20T02:21:52;14.40;;;6.67;;
70715;SDS011;59053;50.832;12.882;2023-07-20T02:24:18;13.30;;;6.80;;
70715;SDS011;59053;50.832;12.882;2023-07-20T02:26:43;11.30;;;6.37;;
70715;SDS011;59053;50.832;12.882;2023-07-20T02:29:09;14.33;;;7.40;;
70715;SDS011;59053;50.832;12.882;2023-07-20T02:31:37;14.50;;;6.87;;
70715;SDS011;59053;50.832;12.882;2023-07-20T02:34:05;11.18;;;6.90;;
70715;SDS011;59053;50.832;12.882;2023-07-20T02:36:31;12.20;;;6.88;;
70715;SDS011;59053;50.832;12.882;2023-07-20T02:38:58;14.88;;;6.97;;
70715;SDS011;59053;50.832;12.882;2023-07-20T02:41:23;12.18;;;6.72;;
70715;SDS011;59053;50.832;12.882;2023-07-20T02:43:49;13.70;;;7.03;;
70715;SDS011;59053;50.832;12.882;2023-07-20T02:49:07;12.32;;;7.25;;
70715;SDS011;59053;50.832;12.882;2023-07-20T02:51:32;10.93;;;6.37;;
70715;SDS011;59053;50.832;12.882;2023-07-20T02:53:58;10.77;;;6.33;;
70715;SDS011;59053;50.832;12.882;2023-07-20T02:56:24;15.07;;;6.80;;
70715;SDS011;59053;50.832;12.882;2023-07-20T02:58:49;10.33;;;5.90;;
70715;SDS011;59053;50.832;12.882;2023-07-20T03:01:15;17.00;;;7.10;;
70715;SDS011;59053;50.832;12.882;2023-07-20T03:03:41;9.93;;;5.97;;
70715;SDS011;59053;50.832;12.882;2023-07-20T03:06:11;9.75;;;5.85;;
70715;SDS011;59053;50.832;12.882;2023-07-20T03:08:36;11.50;;;5.90;;
70715;SDS011;59053;50.832;12.882;2023-07-20T03:11:02;11.23;;;6.17;;
70715;SDS011;59053;50.832;12.882;2023-07-20T03:13:28;15.37;;;6.30;;
70715;SDS011;59053;50.832;12.882;2023-07-20T03:15:53;10.85;;;6.38;;
70715;SDS011;59053;50.832;12.882;2023-07-20T03:18:19;12.27;;;5.87;;
70715;SDS011;59053;50.832;12.882;2023-07-20T03:20:44;10.53;;;5.97;;
70715;SDS011;59053;50.832;12.882;2023-07-20T03:29:00;12.83;;;6.23;;
70715;SDS011;59053;50.832;12.882;2023-07-20T03:31:25;10.70;;;6.50;;
70715;SDS011;59053;50.832;12.882;2023-07-20T03:33:51;12.00;;;6.20;;
70715;SDS011;59053;50.832;12.882;2023-07-20T03:36:17;13.90;;;6.30;;
70715;SDS011;59053;50.832;12.882;2023-07-20T03:38:42;9.37;;;5.67;;
70715;SDS011;59053;50.832;12.882;2023-07-20T03:41:08;9.27;;;5.70;;
70715;SDS011;59053;50.832;12.882;2023-07-20T03:43:34;10.98;;;6.00;;
70715;SDS011;59053;50.832;12.882;2023-07-20T03:45:59;11.67;;;6.40;;
70715;SDS011;59053;50.832;12.882;2023-07-20T03:48:25;10.27;;;6.23;;
70715;SDS011;59053;50.832;12.882;2023-07-20T03:50:51;11.55;;;6.10;;
70715;SDS011;59053;50.832;12.882;2023-07-20T03:53:17;10.60;;;5.95;;
70715;SDS011;59053;50.832;12.882;2023-07-20T03:55:50;12.82;;;6.35;;
70715;SDS011;59053;50.832;12.882;2023-07-20T03:58:16;10.43;;;6.23;;
70715;SDS011;59053;50.832;12.882;2023-07-20T04:00:54;11.02;;;6.10;;
70715;SDS011;59053;50.832;12.882;2023-07-20T04:03:19;12.07;;;6.55;;
70715;SDS011;59053;50.832;12.882;2023-07-20T04:05:45;12.80;;;6.53;;
70715;SDS011;59053;50.832;12.882;2023-07-20T04:08:11;12.73;;;6.23;;
70715;SDS011;59053;50.832;12.882;2023-07-20T04:10:37;13.02;;;6.80;;
70715;SDS011;59053;50.832;12.882;2023-07-20T04:13:03;15.13;;;6.97;;
70715;SDS011;59053;50.832;12.882;2023-07-20T04:15:28;13.73;;;6.90;;
70715;SDS011;59053;50.832;12.882;2023-07-20T04:17:54;10.50;;;6.67;;
70715;SDS011;59053;50.832;12.882;2023-07-20T04:20:20;13.95;;;6.65;;
70715;SDS011;59053;50.832;12.882;2023-07-20T04:22:52;12.77;;;6.90;;
70715;SDS011;59053;50.832;12.882;2023-07-20T04:25:18;11.77;;;6.50;;
70715;SDS011;59053;50.832;12.882;2023-07-20T04:27:44;11.47;;;6.30;;
70715;SDS011;59053;50.832;12.882;2023-07-20T04:30:10;11.05;;;6.60;;
70715;SDS011;59053;50.832;12.882;2023-07-20T04:32:37;13.13;;;6.57;;
70715;SDS011;59053;50.832;12.882;2023-07-20T04:35:06;10.85;;;6.07;;
70715;SDS011;59053;50.832;12.882;2023-07-20T04:41:06;11.43;;;6.50;;
70715;SDS011;59053;50.832;12.882;2023-07-20T04:43:36;10.98;;;6.18;;
70715;SDS011;59053;50.832;12.882;2023-07-20T04:46:02;9.20;;;6.07;;
70715;SDS011;59053;50.832;12.882;2023-07-20T04:48:29;11.32;;;6.20;;
70715;SDS011;59053;50.832;12.882;2023-07-20T04:53:50;8.27;;;5.85;;
70715;SDS011;59053;50.832;12.882;2023-07-20T04:56:16;11.00;;;6.30;;
70715;SDS011;59053;50.832;12.882;2023-07-20T04:58:42;10.67;;;5.93;;
70715;SDS011;59053;50.832;12.882;2023-07-20T05:01:08;10.60;;;6.50;;
70715;SDS011;59053;50.832;12.882;2023-07-20T05:03:34;12.20;;;6.50;;
70715;SDS011;59053;50.832;12.882;2023-07-20T05:06:00;11.27;;;6.25;;
70715;SDS011;59053;50.832;12.882;2023-07-20T05:08:25;10.50;;;6.03;;
70715;SDS011;59053;50.832;12.882;2023-07-20T05:10:52;11.55;;;6.07;;
70715;SDS011;59053;50.832;12.882;2023-07-20T05:13:17;13.40;;;6.20;;
70715;SDS011;59053;50.832;12.882;2023-07-20T05:15:42;10.27;;;5.87;;
70715;SDS011;59053;50.832;12.882;2023-07-20T05:18:11;9.10;;;6.07;;
70715;SDS011;59053;50.832;12.882;2023-07-20T05:20:38;9.68;;;6.03;;
70715;SDS011;59053;50.832;12.882;2023-07-20T05:23:04;11.32;;;6.30;;
70715;SDS011;59053;50.832;12.882;2023-07-20T05:25:30;13.73;;;5.90;;
70715;SDS011;59053;50.832;12.882;2023-07-20T05:27:56;11.52;;;6.20;;
70715;SDS011;59053;50.832;12.882;2023-07-20T05:30:21;10.77;;;5.87;;
70715;SDS011;59053;50.832;12.882;2023-07-20T05:32:47;11.80;;;6.30;;
70715;SDS011;59053;50.832;12.882;2023-07-20T05:35:23;11.50;;;6.32;;
70715;SDS011;59053;50.832;12.882;2023-07-20T05:37:48;13.13;;;7.22;;
70715;SDS011;59053;50.832;12.882;2023-07-20T05:40:14;11.03;;;7.47;;
70715;SDS011;59053;50.832;12.882;2023-07-20T05:42:43;11.07;;;6.65;;
70715;SDS011;59053;50.832;12.882;2023-07-20T05:45:09;11.20;;;7.13;;
70715;SDS011;59053;50.832;12.882;2023-07-20T05:47:34;9.98;;;5.05;;
70715;SDS011;59053;50.832;12.882;2023-07-20T05:50:00;7.87;;;4.77;;
70715;SDS011;59053;50.832;12.882;2023-07-20T05:52:25;8.10;;;5.00;;
70715;SDS011;59053;50.832;12.882;2023-07-20T05:54:51;8.17;;;4.77;;
70715;SDS011;59053;50.832;12.882;2023-07-20T05:57:23;6.00;;;3.30;;
70715;SDS011;59053;50.832;12.882;2023-07-20T05:59:48;7.57;;;3.10;;
70715;SDS011;59053;50.832;12.882;2023-07-20T06:02:14;7.07;;;3.00;;
70715;SDS011;59053;50.832;12.882;2023-07-20T06:04:39;6.17;;;3.40;;
70715;SDS011;59053;50.832;12.882;2023-07-20T06:07:05;8.33;;;3.40;;
70715;SDS011;59053;50.832;12.882;2023-07-20T06:09:30;6.15;;;3.35;;
70715;SDS011;59053;50.832;12.882;2023-07-20T06:11:57;6.57;;;3.70;;
70715;SDS011;59053;50.832;12.882;2023-07-20T06:14:22;8.53;;;3.93;;
70715;SDS011;59053;50.832;12.882;2023-07-20T06:16:48;6.43;;;3.40;;
70715;SDS011;59053;50.832;12.882;2023-07-20T06:19:13;8.67;;;3.50;;
70715;SDS011;59053;50.832;12.882;2023-07-20T06:21:39;9.60;;;3.37;;
70715;SDS011;59053;50.832;12.882;2023-07-20T06:24:04;7.00;;;3.00;;
70715;SDS011;59053;50.832;12.882;2023-07-20T06:26:30;6.03;;;3.00;;
70715;SDS011;59053;50.832;12.882;2023-07-20T06:28:56;10.50;;;3.20;;
70715;SDS011;59053;50.832;12.882;2023-07-20T06:31:21;4.40;;;3.00;;
70715;SDS011;59053;50.832;12.882;2023-07-20T06:33:47;6.47;;;3.03;;
70715;SDS011;59053;50.832;12.882;2023-07-20T06:36:12;5.53;;;2.70;;
70715;SDS011;59053;50.832;12.882;2023-07-20T06:38:38;4.70;;;3.10;;
70715;SDS011;59053;50.832;12.882;2023-07-20T06:41:03;5.60;;;3.10;;
70715;SDS011;59053;50.832;12.882;2023-07-20T06:43:29;4.45;;;2.72;;
70715;SDS011;59053;50.832;12.882;2023-07-20T06:45:56;4.05;;;2.30;;
70715;SDS011;59053;50.832;12.882;2023-07-20T06:48:21;3.70;;;2.40;;
70715;SDS011;59053;50.832;12.882;2023-07-20T06:50:47;3.40;;;2.00;;
70715;SDS011;59053;50.832;12.882;2023-07-20T06:53:12;3.73;;;2.50;;
70715;SDS011;59053;50.832;12.882;2023-07-20T06:55:38;4.30;;;2.33;;
70715;SDS011;59053;50.832;12.882;2023-07-20T06:58:03;6.53;;;2.50;;
70715;SDS011;59053;50.832;12.882;2023-07-20T07:00:29;3.37;;;2.10;;
70715;SDS011;59053;50.832;12.882;2023-07-20T07:02:54;4.27;;;2.20;;
70715;SDS011;59053;50.832;12.882;2023-07-20T07:05:19;4.10;;;2.25;;
70715;SDS011;59053;50.832;12.882;2023-07-20T07:07:45;3.53;;;2.17;;
70715;SDS011;59053;50.832;12.882;2023-07-20T07:10:10;3.10;;;1.83;;
70715;SDS011;59053;50.832;12.882;2023-07-20T07:12:37;4.30;;;2.20;;
70715;SDS011;59053;50.832;12.882;2023-07-20T07:15:03;3.30;;;2.22;;
70715;SDS011;59053;50.832;12.882;2023-07-20T07:17:31;4.10;;;2.22;;
70715;SDS011;59053;50.832;12.882;2023-07-20T07:19:58;4.80;;;2.78;;
70715;SDS011;59053;50.832;12.882;2023-07-20T07:22:23;6.00;;;3.13;;
70715;SDS011;59053;50.832;12.882;2023-07-20T07:24:48;7.80;;;3.80;;
70715;SDS011;59053;50.832;12.882;2023-07-20T07:27:14;6.72;;;4.20;;
70715;SDS011;59053;50.832;12.882;2023-07-20T07:29:42;8.70;;;4.30;;
70715;SDS011;59053;50.832;12.882;2023-07-20T07:32:10;8.00;;;4.55;;
70715;SDS011;59053;50.832;12.882;2023-07-20T07:34:38;7.50;;;4.45;;
70715;SDS011;59053;50.832;12.882;2023-07-20T07:37:04;8.93;;;4.67;;
70715;SDS011;59053;50.832;12.882;2023-07-20T07:39:30;8.13;;;4.65;;
70715;SDS011;59053;50.832;12.882;2023-07-20T07:41:55;9.77;;;4.57;;
70715;SDS011;59053;50.832;12.882;2023-07-20T07:44:21;8.80;;;4.60;;
70715;SDS011;59053;50.832;12.882;2023-07-20T07:46:47;9.40;;;5.07;;
70715;SDS011;59053;50.832;12.882;2023-07-20T07:49:12;7.30;;;4.50;;
70715;SDS011;59053;50.832;12.882;2023-07-20T07:51:37;7.50;;;4.73;;
70715;SDS011;59053;50.832;12.882;2023-07-20T07:54:03;8.77;;;4.90;;
70715;SDS011;59053;50.832;12.882;2023-07-20T07:56:29;8.60;;;5.67;;
70715;SDS011;59053;50.832;12.882;2023-07-20T07:58:54;9.97;;;5.73;;
70715;SDS011;59053;50.832;12.882;2023-07-20T08:01:19;7.80;;;4.93;;
70715;SDS011;59053;50.832;12.882;2023-07-20T08:03:45;7.70;;;5.30;;
70715;SDS011;59053;50.832;12.882;2023-07-20T08:06:15;9.27;;;5.40;;
70715;SDS011;59053;50.832;12.882;2023-07-20T08:08:41;7.97;;;5.25;;
70715;SDS011;59053;50.832;12.882;2023-07-20T08:11:10;7.60;;;4.90;;
70715;SDS011;59053;50.832;12.882;2023-07-20T08:13:36;7.53;;;5.33;;
70715;SDS011;59053;50.832;12.882;2023-07-20T08:16:02;9.30;;;5.80;;
70715;SDS011;59053;50.832;12.882;2023-07-20T08:18:27;7.17;;;4.90;;
70715;SDS011;59053;50.832;12.882;2023-07-20T08:20:53;7.75;;;5.30;;
70715;SDS011;59053;50.832;12.882;2023-07-20T08:23:19;8.30;;;5.87;;
70715;SDS011;59053;50.832;12.882;2023-07-20T08:25:44;11.43;;;6.20;;
70715;SDS011;59053;50.832;12.882;2023-07-20T08:28:10;11.50;;;6.27;;
70715;SDS011;59053;50.832;12.882;2023-07-20T08:30:40;11.02;;;6.50;;
70715;SDS011;59053;50.832;12.882;2023-07-20T08:33:17;10.02;;;6.20;;
70715;SDS011;59053;50.832;12.882;2023-07-20T08:35:45;9.85;;;6.07;;
70715;SDS011;59053;50.832;12.882;2023-07-20T08:38:11;8.67;;;5.60;;
70715;SDS011;59053;50.832;12.882;2023-07-20T08:40:41;7.93;;;5.68;;
70715;SDS011;59053;50.832;12.882;2023-07-20T08:43:08;7.90;;;5.40;;
70715;SDS011;59053;50.832;12.882;2023-07-20T08:45:35;8.38;;;5.70;;
70715;SDS011;59053;50.832;12.882;2023-07-20T08:48:01;13.10;;;5.90;;
70715;SDS011;59053;50.832;12.882;2023-07-20T08:50:28;9.83;;;5.63;;
70715;SDS011;59053;50.832;12.882;2023-07-20T08:52:56;8.52;;;5.53;;
70715;SDS011;59053;50.832;12.882;2023-07-20T08:55:22;8.30;;;5.25;;
70715;SDS011;59053;50.832;12.882;2023-07-20T08:57:49;9.65;;;5.10;;
70715;SDS011;59053;50.832;12.882;2023-07-20T09:00:19;8.95;;;4.70;;
70715;SDS011;59053;50.832;12.882;2023-07-20T09:02:55;8.90;;;4.50;;
70715;SDS011;59053;50.832;12.882;2023-07-20T09:05:22;8.35;;;3.72;;
70715;SDS011;59053;50.832;12.882;2023-07-20T09:07:48;7.68;;;3.80;;
70715;SDS011;59053;50.832;12.882;2023-07-20T09:10:14;6.13;;;3.50;;
70715;SDS011;59053;50.832;12.882;2023-07-20T09:12:40;5.45;;;3.15;;
70715;SDS011;59053;50.832;12.882;2023-07-20T09:15:18;5.80;;;2.90;;
70715;SDS011;59053;50.832;12.882;2023-07-20T09:17:45;5.10;;;3.10;;
70715;SDS011;59053;50.832;12.882;2023-07-20T09:20:20;5.07;;;3.50;;
70715;SDS011;59053;50.832;12.882;2023-07-20T09:22:45;5.10;;;3.40;;
70715;SDS011;59053;50.832;12.882;2023-07-20T09:25:15;4.88;;;2.90;;
70715;SDS011;59053;50.832;12.882;2023-07-20T09:30:08;10.98;;;3.40;;
70715;SDS011;59053;50.832;12.882;2023-07-20T09:38:00;8.60;;;3.92;;
70715;SDS011;59053;50.832;12.882;2023-07-20T09:40:26;9.77;;;3.50;;
70715;SDS011;59053;50.832;12.882;2023-07-20T09:42:53;7.35;;;3.70;;
70715;SDS011;59053;50.832;12.882;2023-07-20T09:45:40;6.65;;;3.50;;
70715;SDS011;59053;50.832;12.882;2023-07-20T09:48:07;6.13;;;3.40;;
70715;SDS011;59053;50.832;12.882;2023-07-20T09:50:33;7.07;;;3.83;;
70715;SDS011;59053;50.832;12.882;2023-07-20T09:55:52;5.68;;;3.45;;
70715;SDS011;59053;50.832;12.882;2023-07-20T09:58:18;7.45;;;3.50;;
70715;SDS011;59053;50.832;12.882;2023-07-20T10:00:45;4.53;;;3.30;;
70715;SDS011;59053;50.832;12.882;2023-07-20T10:03:19;6.43;;;3.40;;
70715;SDS011;59053;50.832;12.882;2023-07-20T10:05:47;5.43;;;3.00;;
70715;SDS011;59053;50.832;12.882;2023-07-20T10:11:15;4.47;;;2.72;;
70715;SDS011;59053;50.832;12.882;2023-07-20T10:13:41;5.50;;;2.97;;
70715;SDS011;59053;50.832;12.882;2023-07-20T10:16:12;4.57;;;2.95;;
70715;SDS011;59053;50.832;12.882;2023-07-20T10:21:24;5.75;;;3.25;;
70715;SDS011;59053;50.832;12.882;2023-07-20T10:26:34;5.40;;;2.90;;
70715;SDS011;59053;50.832;12.882;2023-07-20T10:29:00;4.65;;;2.90;;
70715;SDS011;59053;50.832;12.882;2023-07-20T10:31:26;4.15;;;2.80;;
70715;SDS011;59053;50.832;12.882;2023-07-20T10:33:53;5.23;;;3.30;;
70715;SDS011;59053;50.832;12.882;2023-07-20T10:36:26;5.05;;;2.80;;
70715;SDS011;59053;50.832;12.882;2023-07-20T10:38:56;5.00;;;3.40;;
70715;SDS011;59053;50.832;12.882;2023-07-20T10:43:58;5.35;;;3.00;;
70715;SDS011;59053;50.832;12.882;2023-07-20T10:49:03;5.80;;;3.33;;
70715;SDS011;59053;50.832;12.882;2023-07-20T10:51:30;4.97;;;3.05;;
70715;SDS011;59053;50.832;12.882;2023-07-20T10:54:48;6.20;;;3.20;;
70715;SDS011;59053;50.832;12.882;2023-07-20T10:56:58;5.65;;;3.10;;
70715;SDS011;59053;50.832;12.882;2023-07-20T10:59:49;5.47;;;2.90;;
70715;SDS011;59053;50.832;12.882;2023-07-20T11:02:17;4.95;;;3.00;;
70715;SDS011;59053;50.832;12.882;2023-07-20T11:04:44;5.50;;;2.90;;
70715;SDS011;59053;50.832;12.882;2023-07-20T11:07:15;4.45;;;2.70;;
70715;SDS011;59053;50.832;12.882;2023-07-20T11:09:41;5.65;;;2.50;;
70715;SDS011;59053;50.832;12.882;2023-07-20T11:12:14;5.50;;;3.03;;
70715;SDS011;59053;50.832;12.882;2023-07-20T11:14:53;4.53;;;2.70;;
70715;SDS011;59053;50.832;12.882;2023-07-20T11:17:19;3.20;;;2.30;;
70715;SDS011;59053;50.832;12.882;2023-07-20T11:19:55;4.03;;;2.53;;
70715;SDS011;59053;50.832;12.882;2023-07-20T11:22:21;3.55;;;2.33;;
70715;SDS011;59053;50.832;12.882;2023-07-20T11:24:46;3.63;;;2.20;;
70715;SDS011;59053;50.832;12.882;2023-07-20T11:27:32;4.50;;;2.40;;
70715;SDS011;59053;50.832;12.882;2023-07-20T11:29:57;3.65;;;2.20;;
70715;SDS011;59053;50.832;12.882;2023-07-20T11:32:23;3.60;;;2.20;;
70715;SDS011;59053;50.832;12.882;2023-07-20T11:34:49;3.10;;;2.10;;
70715;SDS011;59053;50.832;12.882;2023-07-20T11:37:15;3.80;;;2.20;;
70715;SDS011;59053;50.832;12.882;2023-07-20T11:39:41;4.47;;;2.10;;
70715;SDS011;59053;50.832;12.882;2023-07-20T11:42:06;6.30;;;2.40;;
70715;SDS011;59053;50.832;12.882;2023-07-20T11:44:38;5.07;;;2.30;;
70715;SDS011;59053;50.832;12.882;2023-07-20T11:49:54;3.58;;;2.10;;
70715;SDS011;59053;50.832;12.882;2023-07-20T11:52:19;5.67;;;2.20;;
70715;SDS011;59053;50.832;12.882;2023-07-20T11:54:45;5.18;;;2.20;;
70715;SDS011;59053;50.832;12.882;2023-07-20T11:57:15;6.40;;;1.53;;
70715;SDS011;59053;50.832;12.882;2023-07-20T12:02:45;2.00;;;1.38;;
70715;SDS011;59053;50.832;12.882;2023-07-20T12:05:13;2.75;;;1.50;;
70715;SDS011;59053;50.832;12.882;2023-07-20T12:07:49;2.23;;;1.80;;
70715;SDS011;59053;50.832;12.882;2023-07-20T12:10:15;3.22;;;1.80;;
70715;SDS011;59053;50.832;12.882;2023-07-20T12:12:45;2.77;;;2.00;;
70715;SDS011;59053;50.832;12.882;2023-07-20T12:15:14;3.83;;;2.15;;
70715;SDS011;59053;50.832;12.882;2023-07-20T12:17:52;5.15;;;2.60;;
70715;SDS011;59053;50.832;12.882;2023-07-20T12:20:34;5.20;;;2.90;;
70715;SDS011;59053;50.832;12.882;2023-07-20T12:23:03;5.90;;;3.10;;
70715;SDS011;59053;50.832;12.882;2023-07-20T12:25:45;4.90;;;3.13;;
70715;SDS011;59053;50.832;12.882;2023-07-20T12:28:12;5.28;;;3.08;;
70715;SDS011;59053;50.832;12.882;2023-07-20T12:30:41;5.70;;;3.33;;
70715;SDS011;59053;50.832;12.882;2023-07-20T12:33:08;5.90;;;3.60;;
70715;SDS011;59053;50.832;12.882;2023-07-20T12:35:34;6.63;;;3.17;;
70715;SDS011;59053;50.832;12.882;2023-07-20T12:38:00;8.00;;;3.38;;
70715;SDS011;59053;50.832;12.882;2023-07-20T12:40:26;5.63;;;3.43;;
70715;SDS011;59053;50.832;12.882;2023-07-20T12:42:51;6.03;;;3.38;;
70715;SDS011;59053;50.832;12.882;2023-07-20T12:45:17;6.53;;;3.53;;
70715;SDS011;59053;50.832;12.882;2023-07-20T12:47:43;8.77;;;4.45;;
70715;SDS011;59053;50.832;12.882;2023-07-20T12:50:09;7.73;;;3.70;;
70715;SDS011;59053;50.832;12.882;2023-07-20T12:52:38;6.63;;;3.65;;
70715;SDS011;59053;50.832;12.882;2023-07-20T12:55:04;5.82;;;3.28;;
70715;SDS011;59053;50.832;12.882;2023-07-20T12:57:40;5.93;;;3.00;;
70715;SDS011;59053;50.832;12.882;2023-07-20T13:00:06;6.37;;;3.23;;
70715;SDS011;59053;50.832;12.882;2023-07-20T13:02:33;8.23;;;2.45;;
70715;SDS011;59053;50.832;12.882;2023-07-20T13:04:59;3.58;;;2.60;;
70715;SDS011;59053;50.832;12.882;2023-07-20T13:07:31;3.80;;;2.40;;
70715;SDS011;59053;50.832;12.882;2023-07-20T13:10:00;3.13;;;2.15;;
70715;SDS011;59053;50.832;12.882;2023-07-20T13:12:30;4.17;;;2.50;;
70715;SDS011;59053;50.832;12.882;2023-07-20T13:14:56;4.97;;;2.13;;
70715;SDS011;59053;50.832;12.882;2023-07-20T13:17:25;2.45;;;2.05;;
70715;SDS011;59053;50.832;12.882;2023-07-20T13:19:51;2.90;;;2.38;;
70715;SDS011;59053;50.832;12.882;2023-07-20T13:22:16;4.73;;;2.30;;
70715;SDS011;59053;50.832;12.882;2023-07-20T13:24:44;4.20;;;2.63;;
70715;SDS011;59053;50.832;12.882;2023-07-20T13:27:10;3.30;;;2.50;;
70715;SDS011;59053;50.832;12.882;2023-07-20T13:29:35;4.50;;;2.33;;
70715;SDS011;59053;50.832;12.882;2023-07-20T13:32:01;3.38;;;2.60;;
70715;SDS011;59053;50.832;12.882;2023-07-20T13:34:29;4.30;;;2.77;;
70715;SDS011;59053;50.832;12.882;2023-07-20T13:36:54;3.35;;;2.67;;
70715;SDS011;59053;50.832;12.882;2023-07-20T13:39:20;5.47;;;2.93;;
70715;SDS011;59053;50.832;12.882;2023-07-20T13:41:49;3.05;;;2.05;;
70715;SDS011;59053;50.832;12.882;2023-07-20T13:44:14;4.03;;;2.50;;
70715;SDS011;59053;50.832;12.882;2023-07-20T13:46:40;4.07;;;2.70;;
70715;SDS011;59053;50.832;12.882;2023-07-20T13:49:05;3.40;;;2.60;;
70715;SDS011;59053;50.832;12.882;2023-07-20T13:51:30;3.80;;;2.70;;
70715;SDS011;59053;50.832;12.882;2023-07-20T13:53:56;5.82;;;2.20;;
70715;SDS011;59053;50.832;12.882;2023-07-20T13:56:22;2.90;;;2.05;;
70715;SDS011;59053;50.832;12.882;2023-07-20T13:58:48;2.27;;;2.00;;
70715;SDS011;59053;50.832;12.882;2023-07-20T14:01:13;3.20;;;2.00;;
70715;SDS011;59053;50.832;12.882;2023-07-20T14:03:39;2.57;;;2.20;;
70715;SDS011;59053;50.832;12.882;2023-07-20T14:06:04;3.63;;;2.03;;
70715;SDS011;59053;50.832;12.882;2023-07-20T14:08:30;3.27;;;1.40;;
70715;SDS011;59053;50.832;12.882;2023-07-20T14:10:56;2.00;;;1.80;;
70715;SDS011;59053;50.832;12.882;2023-07-20T14:13:22;3.43;;;1.93;;
70715;SDS011;59053;50.832;12.882;2023-07-20T14:15:47;2.47;;;1.77;;
70715;SDS011;59053;50.832;12.882;2023-07-20T14:18:13;2.20;;;1.80;;
70715;SDS011;59053;50.832;12.882;2023-07-20T14:20:39;2.20;;;2.00;;
70715;SDS011;59053;50.832;12.882;2023-07-20T14:23:04;2.30;;;2.10;;
70715;SDS011;59053;50.832;12.882;2023-07-20T14:25:33;2.28;;;1.90;;
70715;SDS011;59053;50.832;12.882;2023-07-20T14:27:59;3.17;;;2.00;;
70715;SDS011;59053;50.832;12.882;2023-07-20T14:30:33;3.30;;;1.80;;
70715;SDS011;59053;50.832;12.882;2023-07-20T14:32:58;2.53;;;1.70;;
70715;SDS011;59053;50.832;12.882;2023-07-20T14:35:26;2.20;;;1.80;;
70715;SDS011;59053;50.832;12.882;2023-07-20T14:37:52;2.00;;;1.80;;
70715;SDS011;59053;50.832;12.882;2023-07-20T14:40:20;2.47;;;1.85;;
70715;SDS011;59053;50.832;12.882;2023-07-20T14:42:48;2.20;;;1.90;;
70715;SDS011;59053;50.832;12.882;2023-07-20T14:45:30;3.25;;;2.05;;
70715;SDS011;59053;50.832;12.882;2023-07-20T14:48:09;2.70;;;1.83;;
70715;SDS011;59053;50.832;12.882;2023-07-20T14:50:41;2.90;;;1.83;;
70715;SDS011;59053;50.832;12.882;2023-07-20T14:56:28;2.33;;;2.03;;
70715;SDS011;59053;50.832;12.882;2023-07-20T14:59:00;4.00;;;2.10;;
70715;SDS011;59053;50.832;12.882;2023-07-20T15:01:28;3.38;;;2.20;;
70715;SDS011;59053;50.832;12.882;2023-07-20T15:04:00;2.40;;;2.00;;
70715;SDS011;59053;50.832;12.882;2023-07-20T15:06:28;2.28;;;2.00;;
70715;SDS011;59053;50.832;12.882;2023-07-20T15:08:55;2.00;;;1.80;;
70715;SDS011;59053;50.832;12.882;2023-07-20T15:11:21;2.55;;;1.85;;
70715;SDS011;59053;50.832;12.882;2023-07-20T15:13:49;2.20;;;2.00;;
70715;SDS011;59053;50.832;12.882;2023-07-20T15:16:20;1.90;;;1.80;;
70715;SDS011;59053;50.832;12.882;2023-07-20T15:18:48;2.60;;;2.10;;
70715;SDS011;59053;50.832;12.882;2023-07-20T15:21:16;1.87;;;1.77;;
70715;SDS011;59053;50.832;12.882;2023-07-20T15:23:51;3.67;;;2.00;;
70715;SDS011;59053;50.832;12.882;2023-07-20T15:26:17;3.57;;;2.10;;
70715;SDS011;59053;50.832;12.882;2023-07-20T15:28:46;2.95;;;1.90;;
70715;SDS011;59053;50.832;12.882;2023-07-20T15:31:11;2.20;;;2.00;;
70715;SDS011;59053;50.832;12.882;2023-07-20T15:33:37;2.43;;;1.97;;
70715;SDS011;59053;50.832;12.882;2023-07-20T15:36:02;4.28;;;2.30;;
70715;SDS011;59053;50.832;12.882;2023-07-20T15:41:30;2.30;;;2.10;;